createdAt,value
2019-01-04T00:02:06.989Z,18.37
2019-01-04T00:04:54.675Z,18.73
2019-01-04T00:07:42.255Z,18.70
2019-01-04T00:10:29.815Z,18.30
2019-01-04T00:13:17.830Z,19.23
2019-01-04T00:16:05.223Z,18.60
2019-01-04T00:18:52.562Z,19.43
2019-01-04T00:21:39.859Z,18.73
2019-01-04T00:24:27.465Z,20.73
2019-01-04T00:27:14.836Z,18.80
2019-01-04T00:30:02.269Z,18.40
2019-01-04T00:32:49.840Z,18.83
2019-01-04T00:35:37.452Z,18.77
2019-01-04T00:38:25.120Z,18.90
2019-01-04T00:41:12.801Z,18.17
2019-01-04T00:44:00.523Z,19.43
2019-01-04T00:46:47.718Z,19.67
2019-01-04T00:49:34.897Z,19.67
2019-01-04T00:52:22.470Z,19.63
2019-01-04T00:55:34.403Z,18.07
2019-01-04T00:58:41.012Z,19.70
2019-01-04T01:02:08.477Z,18.80
2019-01-04T01:05:25.241Z,19.33
2019-01-04T01:08:55.881Z,20.40
2019-01-04T01:12:25.187Z,19.80
2019-01-04T01:16:12.008Z,20.03
2019-01-04T01:19:23.759Z,19.90
2019-01-04T01:23:02.478Z,21.13
2019-01-04T01:26:42.965Z,21.20
2019-01-04T01:30:22.073Z,22.57
2019-01-04T01:33:28.880Z,21.10
2019-01-04T01:37:12.430Z,21.23
2019-01-04T01:40:53.624Z,21.03
2019-01-04T01:44:23.758Z,22.07
2019-01-04T01:47:37.319Z,22.60
2019-01-04T01:50:59.578Z,21.97
2019-01-04T01:53:47.232Z,21.70
2019-01-04T01:56:34.652Z,23.53
2019-01-04T01:59:22.289Z,22.73
2019-01-04T02:02:09.439Z,22.43
2019-01-04T02:04:56.865Z,22.80
2019-01-04T02:07:44.671Z,22.37
2019-01-04T02:10:32.116Z,21.80
2019-01-04T02:13:19.905Z,21.67
2019-01-04T02:16:07.340Z,21.50
2019-01-04T02:18:54.621Z,22.33
2019-01-04T02:21:42.201Z,22.83
2019-01-04T02:24:30.795Z,22.37
2019-01-04T02:27:18.087Z,24.00
2019-01-04T02:30:07.427Z,23.90
2019-01-04T02:32:54.975Z,25.73
2019-01-04T02:35:42.667Z,25.57
2019-01-04T02:38:30.227Z,26.90
2019-01-04T02:41:17.861Z,27.97
2019-01-04T02:44:05.429Z,28.43
2019-01-04T02:46:52.703Z,27.87
2019-01-04T02:49:40.288Z,26.17
2019-01-04T02:52:28.117Z,27.10
2019-01-04T02:55:16.283Z,29.07
2019-01-04T02:58:04.029Z,27.07
2019-01-04T03:00:51.930Z,26.93
2019-01-04T03:03:39.730Z,27.00
2019-01-04T03:06:27.554Z,26.53
2019-01-04T03:09:14.829Z,25.90
2019-01-04T03:12:02.782Z,25.30
2019-01-04T03:14:50.431Z,25.43
2019-01-04T03:17:38.408Z,24.10
2019-01-04T03:20:25.993Z,26.27
2019-01-04T03:23:13.799Z,25.50
2019-01-04T03:26:01.756Z,25.87
2019-01-04T03:28:49.551Z,25.33
2019-01-04T03:31:37.057Z,26.90
2019-01-04T03:34:24.625Z,25.37
2019-01-04T03:37:11.748Z,26.53
2019-01-04T03:39:59.201Z,26.83
2019-01-04T03:42:46.311Z,25.87
2019-01-04T03:45:33.930Z,25.13
2019-01-04T03:48:21.354Z,26.50
2019-01-04T03:51:08.692Z,25.47
2019-01-04T03:53:56.349Z,25.20
2019-01-04T03:56:44.119Z,25.13
2019-01-04T03:59:31.433Z,25.17
2019-01-04T04:02:18.554Z,25.77
2019-01-04T04:05:06.033Z,25.23
2019-01-04T04:07:53.680Z,25.13
2019-01-04T04:10:41.433Z,25.33
2019-01-04T04:13:28.893Z,24.23
2019-01-04T04:16:16.295Z,23.37
2019-01-04T04:19:04.123Z,25.70
2019-01-04T04:21:52.306Z,25.47
2019-01-04T04:24:40.539Z,27.20
2019-01-04T04:27:27.954Z,24.80
2019-01-04T04:30:15.646Z,24.97
2019-01-04T04:33:03.682Z,26.20
2019-01-04T04:35:51.604Z,25.00
2019-01-04T04:38:39.164Z,25.37
2019-01-04T04:41:27.089Z,25.93
2019-01-04T04:44:22.070Z,25.83
2019-01-04T04:47:10.684Z,24.30
2019-01-04T04:49:58.097Z,24.13
2019-01-04T04:52:46.634Z,23.30
2019-01-04T04:55:34.781Z,23.83
2019-01-04T04:58:22.743Z,24.37
2019-01-04T05:01:10.476Z,25.40
2019-01-04T05:03:58.452Z,24.30
2019-01-04T05:06:46.758Z,26.03
2019-01-04T05:09:35.150Z,24.50
2019-01-04T05:12:22.978Z,25.63
2019-01-04T05:18:03.965Z,24.50
2019-01-04T05:20:51.949Z,25.17
2019-01-04T05:23:39.778Z,23.57
2019-01-04T05:26:27.348Z,24.27
2019-01-04T05:29:15.166Z,25.93
2019-01-04T05:32:02.848Z,25.93
2019-01-04T05:34:50.683Z,26.50
2019-01-04T05:37:38.913Z,24.63
2019-01-04T05:40:26.598Z,25.03
2019-01-04T05:43:14.621Z,25.37
2019-01-04T05:46:03.135Z,26.27
2019-01-04T05:48:51.053Z,26.77
2019-01-04T05:51:42.347Z,31.83
2019-01-04T05:54:30.084Z,27.37
2019-01-04T05:57:18.484Z,29.73
2019-01-04T06:00:13.957Z,23.90
2019-01-04T06:02:57.664Z,23.10
2019-01-04T06:05:47.536Z,24.17
2019-01-04T06:08:35.295Z,23.40
2019-01-04T06:11:22.927Z,22.93
2019-01-04T06:14:11.486Z,23.23
2019-01-04T06:16:59.544Z,21.93
2019-01-04T06:19:47.539Z,24.40
2019-01-04T06:22:35.751Z,24.30
2019-01-04T06:25:27.443Z,24.43
2019-01-04T06:28:15.295Z,24.13
2019-01-04T06:31:02.933Z,23.53
2019-01-04T06:33:50.437Z,24.83
2019-01-04T06:36:38.348Z,23.07
2019-01-04T06:39:26.982Z,25.80
2019-01-04T06:42:16.970Z,23.93
2019-01-04T06:45:06.244Z,23.97
2019-01-04T06:47:54.010Z,30.70
2019-01-04T06:50:41.910Z,35.67
2019-01-04T06:53:30.126Z,29.97
2019-01-04T06:56:17.903Z,27.73
2019-01-04T06:59:07.121Z,25.43
2019-01-04T07:01:55.145Z,25.70
2019-01-04T07:04:42.988Z,25.90
2019-01-04T07:07:30.836Z,25.03
2019-01-04T07:10:18.303Z,24.23
2019-01-04T07:13:06.047Z,24.00
2019-01-04T07:15:54.297Z,24.70
2019-01-04T07:18:42.114Z,23.97
2019-01-04T07:21:30.368Z,24.07
2019-01-04T07:24:18.049Z,22.43
2019-01-04T07:27:08.820Z,23.57
2019-01-04T07:29:56.260Z,25.43
2019-01-04T07:32:44.259Z,23.43
2019-01-04T07:35:32.041Z,24.60
2019-01-04T07:38:19.989Z,25.00
2019-01-04T07:41:09.375Z,23.77
2019-01-04T07:43:57.178Z,22.93
2019-01-04T07:46:44.981Z,22.30
2019-01-04T07:49:33.293Z,23.93
2019-01-04T07:52:21.210Z,25.27
2019-01-04T07:55:10.910Z,24.17
2019-01-04T07:57:58.841Z,22.33
2019-01-04T08:00:46.408Z,23.70
2019-01-04T08:03:34.009Z,24.67
2019-01-04T08:06:21.650Z,22.83
2019-01-04T08:09:09.789Z,32.03
2019-01-04T08:11:57.541Z,25.87
2019-01-04T08:14:45.657Z,25.33
2019-01-04T08:17:33.977Z,23.33
2019-01-04T08:20:21.771Z,22.03
2019-01-04T08:23:09.883Z,22.10
2019-01-04T08:25:58.206Z,21.33
2019-01-04T08:28:45.929Z,20.57
2019-01-04T08:31:33.656Z,21.20
2019-01-04T08:34:21.247Z,21.00
2019-01-04T08:37:14.843Z,21.03
2019-01-04T08:40:02.978Z,20.00
2019-01-04T08:42:52.957Z,21.07
2019-01-04T08:45:47.546Z,20.97
2019-01-04T08:48:34.978Z,21.80
2019-01-04T08:51:25.875Z,21.10
2019-01-04T08:54:19.771Z,21.30
2019-01-04T08:57:07.600Z,20.43
2019-01-04T08:59:55.725Z,20.13
2019-01-04T09:02:49.828Z,21.13
2019-01-04T09:05:37.312Z,20.00
2019-01-04T09:08:28.153Z,22.13
2019-01-04T09:11:24.939Z,21.60
2019-01-04T09:14:12.824Z,22.73
2019-01-04T09:17:00.872Z,23.87
2019-01-04T09:19:48.428Z,25.47
2019-01-04T09:22:36.699Z,23.67
2019-01-04T09:25:24.417Z,23.20
2019-01-04T09:28:17.882Z,23.07
2019-01-04T09:31:02.150Z,23.47
2019-01-04T09:33:50.188Z,22.63
2019-01-04T09:36:37.762Z,23.37
2019-01-04T09:39:25.208Z,24.13
2019-01-04T09:42:14.618Z,24.27
2019-01-04T09:45:02.567Z,24.97
2019-01-04T09:47:50.223Z,25.37
2019-01-04T09:50:37.980Z,24.23
2019-01-04T09:53:25.667Z,25.37
2019-01-04T09:56:13.099Z,22.50
2019-01-04T09:59:00.826Z,24.57
2019-01-04T10:01:48.220Z,22.67
2019-01-04T10:04:35.549Z,21.70
2019-01-04T10:07:23.001Z,24.43
2019-01-04T10:10:11.983Z,20.23
2019-01-04T10:13:00.150Z,22.27
2019-01-04T10:15:48.162Z,20.83
2019-01-04T10:18:35.602Z,20.67
2019-01-04T10:21:23.294Z,19.53
2019-01-04T10:24:10.732Z,20.50
2019-01-04T10:26:58.193Z,21.10
2019-01-04T10:29:45.188Z,21.40
2019-01-04T10:32:32.911Z,24.30
2019-01-04T10:35:20.127Z,19.80
2019-01-04T10:38:07.765Z,21.27
2019-01-04T10:40:55.093Z,20.43
2019-01-04T10:43:43.009Z,19.10
2019-01-04T10:46:30.633Z,19.57
2019-01-04T10:49:18.200Z,23.67
2019-01-04T10:52:05.834Z,19.40
2019-01-04T10:54:53.274Z,19.83
2019-01-04T10:57:40.667Z,21.27
2019-01-04T11:00:28.314Z,21.47
2019-01-04T11:03:16.334Z,17.80
2019-01-04T11:06:03.739Z,18.00
2019-01-04T11:08:51.137Z,20.33
2019-01-04T11:11:38.620Z,20.20
2019-01-04T11:14:26.287Z,19.53
2019-01-04T11:17:13.610Z,19.07
2019-01-04T11:20:00.971Z,18.47
2019-01-04T11:23:30.018Z,19.63
2019-01-04T11:26:24.436Z,17.57
2019-01-04T11:29:20.948Z,17.50
2019-01-04T11:33:02.171Z,17.33
2019-01-04T11:36:26.343Z,17.77
2019-01-04T11:39:49.056Z,17.67
2019-01-04T11:42:55.176Z,18.83
2019-01-04T11:45:56.292Z,17.80
2019-01-04T11:49:22.761Z,16.43
2019-01-04T11:52:22.602Z,16.77
2019-01-04T11:55:09.993Z,17.57
2019-01-04T11:57:57.355Z,16.87
2019-01-04T12:00:44.548Z,16.90
2019-01-04T12:03:32.168Z,16.70
2019-01-04T12:06:19.786Z,16.97
2019-01-04T12:09:08.672Z,15.97
2019-01-04T12:11:56.215Z,15.07
2019-01-04T12:14:46.198Z,15.83
2019-01-04T12:17:33.663Z,16.07
2019-01-04T12:20:21.412Z,15.13
2019-01-04T12:23:12.700Z,15.57
2019-01-04T12:26:00.391Z,16.93
2019-01-04T12:28:47.897Z,15.10
2019-01-04T12:31:35.333Z,12.97
2019-01-04T12:34:22.585Z,14.27
2019-01-04T12:37:10.237Z,12.43
2019-01-04T12:39:57.905Z,12.17
2019-01-04T12:42:44.988Z,12.20
2019-01-04T12:45:33.376Z,11.73
2019-01-04T12:48:20.855Z,13.17
2019-01-04T12:51:14.257Z,12.93
2019-01-04T12:54:15.714Z,13.17
2019-01-04T12:57:07.366Z,12.13
2019-01-04T13:03:11.774Z,13.67
2019-01-04T13:06:00.724Z,14.20
2019-01-04T13:08:50.299Z,14.00
2019-01-04T13:11:44.583Z,13.33
2019-01-04T13:14:36.503Z,14.07
2019-01-04T13:17:26.561Z,13.53
2019-01-04T13:20:24.163Z,13.70
2019-01-04T13:23:11.694Z,13.10
2019-01-04T13:25:59.288Z,13.23
2019-01-04T13:28:50.234Z,13.80
2019-01-04T13:31:38.144Z,13.43
2019-01-04T13:34:25.977Z,14.77
2019-01-04T13:37:13.960Z,13.13
2019-01-04T13:40:01.507Z,14.03
2019-01-04T13:42:49.609Z,13.90
2019-01-04T13:45:37.257Z,13.97
2019-01-04T13:48:25.351Z,13.97
2019-01-04T13:51:12.998Z,12.87
2019-01-04T13:54:07.695Z,13.47
2019-01-04T13:56:55.872Z,12.50
2019-01-04T13:59:43.656Z,13.13
2019-01-04T14:02:31.334Z,14.40
2019-01-04T14:05:19.005Z,13.77
2019-01-04T14:08:06.674Z,13.67
2019-01-04T14:10:54.195Z,14.63
2019-01-04T14:13:41.420Z,14.07
2019-01-04T14:16:29.116Z,14.53
2019-01-04T14:19:16.896Z,13.00
2019-01-04T14:22:04.620Z,13.37
2019-01-04T14:24:59.907Z,13.47
2019-01-04T14:27:55.773Z,14.47
2019-01-04T14:30:43.492Z,14.67
2019-01-04T14:33:33.575Z,14.40
2019-01-04T14:36:25.518Z,14.43
2019-01-04T14:39:17.161Z,14.17
2019-01-04T14:42:31.002Z,15.47
2019-01-04T14:45:20.694Z,16.20
2019-01-04T14:48:11.276Z,16.53
2019-01-04T14:51:01.646Z,17.40
2019-01-04T14:53:49.600Z,16.87
2019-01-04T14:56:44.700Z,22.67
2019-01-04T14:59:41.360Z,17.60
2019-01-04T15:02:31.548Z,17.03
2019-01-04T15:05:20.534Z,15.30
2019-01-04T15:08:08.357Z,16.80
2019-01-04T15:10:56.201Z,15.80
2019-01-04T15:13:44.212Z,14.47
2019-01-04T15:16:31.917Z,15.13
2019-01-04T15:19:19.653Z,16.27
2019-01-04T15:22:10.641Z,15.00
2019-01-04T15:24:58.457Z,19.50
2019-01-04T15:27:47.402Z,17.93
2019-01-04T15:30:35.042Z,16.50
2019-01-04T15:33:22.813Z,16.43
2019-01-04T15:36:10.664Z,16.60
2019-01-04T15:38:58.325Z,16.67
2019-01-04T15:41:45.946Z,17.23
2019-01-04T15:44:33.521Z,19.30
2019-01-04T15:47:21.361Z,17.03
2019-01-04T15:50:09.766Z,18.93
2019-01-04T15:52:57.249Z,22.13
2019-01-04T15:55:46.187Z,18.40
2019-01-04T15:58:33.786Z,18.73
2019-01-04T16:01:21.852Z,18.67
2019-01-04T16:04:09.616Z,17.00
2019-01-04T16:06:57.298Z,16.83
2019-01-04T16:09:45.309Z,16.50
2019-01-04T16:12:32.684Z,16.17
2019-01-04T16:15:19.926Z,16.27
2019-01-04T16:18:08.797Z,15.40
2019-01-04T16:20:56.841Z,16.00
2019-01-04T16:23:44.453Z,14.87
2019-01-04T16:26:32.305Z,14.97
2019-01-04T16:29:20.184Z,14.47
2019-01-04T16:32:11.685Z,15.33
2019-01-04T16:35:02.811Z,14.87
2019-01-04T16:37:50.753Z,14.07
2019-01-04T16:40:38.377Z,14.70
2019-01-04T16:43:26.405Z,15.33
2019-01-04T16:46:14.222Z,16.00
2019-01-04T16:49:01.937Z,14.00
2019-01-04T16:51:53.575Z,15.20
2019-01-04T16:54:42.870Z,15.93
2019-01-04T16:57:30.857Z,42.73
2019-01-04T17:00:19.935Z,29.83
2019-01-04T17:03:08.382Z,18.50
2019-01-04T17:05:56.757Z,17.53
2019-01-04T17:08:45.175Z,17.23
2019-01-04T17:11:33.136Z,19.03
2019-01-04T17:14:21.742Z,16.07
2019-01-04T17:17:10.109Z,15.30
2019-01-04T17:19:58.782Z,15.07
2019-01-04T17:22:46.537Z,14.83
2019-01-04T17:25:34.538Z,16.00
2019-01-04T17:28:22.260Z,15.83
2019-01-04T17:31:09.716Z,18.90
2019-01-04T17:33:57.287Z,17.00
2019-01-04T17:36:45.082Z,15.60
2019-01-04T17:39:32.629Z,14.93
2019-01-04T17:42:19.974Z,15.77
2019-01-04T17:45:07.999Z,15.97
2019-01-04T17:47:55.478Z,21.83
2019-01-04T17:50:43.099Z,19.30
2019-01-04T17:53:30.129Z,19.60
2019-01-04T17:56:17.379Z,15.53
2019-01-04T17:59:04.885Z,16.03
2019-01-04T18:01:52.518Z,14.87
2019-01-04T18:04:40.158Z,15.57
2019-01-04T18:07:27.757Z,17.03
2019-01-04T18:10:15.286Z,16.77
2019-01-04T18:13:02.541Z,15.57
2019-01-04T18:15:49.842Z,15.37
2019-01-04T18:18:37.059Z,17.73
2019-01-04T18:21:24.416Z,16.00
2019-01-04T18:24:11.890Z,18.30
2019-01-04T18:26:59.257Z,19.17
2019-01-04T18:29:46.378Z,15.17
2019-01-04T18:32:33.905Z,14.87
2019-01-04T18:35:21.924Z,17.03
2019-01-04T18:38:09.715Z,18.17
2019-01-04T18:40:57.251Z,17.57
2019-01-04T18:43:45.054Z,16.57
2019-01-04T18:46:32.690Z,15.50
2019-01-04T18:49:21.213Z,14.93
2019-01-04T18:52:09.049Z,15.47
2019-01-04T18:54:56.975Z,14.17
2019-01-04T18:57:44.377Z,13.90
2019-01-04T19:00:31.422Z,13.90
2019-01-04T19:03:18.518Z,13.90
2019-01-04T19:06:06.419Z,13.37
2019-01-04T19:08:54.149Z,12.87
2019-01-04T19:11:41.726Z,13.00
2019-01-04T19:14:30.062Z,13.83
2019-01-04T19:17:17.445Z,16.00
2019-01-04T19:20:04.980Z,12.90
2019-01-04T19:22:52.556Z,13.20
2019-01-04T19:25:40.443Z,14.17
2019-01-04T19:28:28.109Z,14.33
2019-01-04T19:31:16.467Z,12.27
2019-01-04T19:34:03.833Z,13.50
2019-01-04T19:36:50.935Z,11.40
2019-01-04T19:39:38.278Z,13.03
2019-01-04T19:42:25.989Z,12.40
2019-01-04T19:45:26.340Z,13.17
2019-01-04T19:48:14.075Z,13.10
2019-01-04T19:51:01.853Z,13.27
2019-01-04T19:53:49.312Z,13.27
2019-01-04T19:56:37.177Z,12.80
2019-01-04T19:59:25.176Z,12.70
2019-01-04T20:02:13.207Z,12.43
2019-01-04T20:05:00.787Z,13.40
2019-01-04T20:08:17.913Z,14.83
2019-01-04T20:11:53.061Z,13.60
2019-01-04T20:15:40.158Z,13.90
2019-01-04T20:18:52.918Z,17.23
2019-01-04T20:22:06.179Z,14.33
2019-01-04T20:25:15.922Z,13.17
2019-01-04T20:28:25.792Z,13.77
2019-01-04T20:31:39.965Z,15.47
2019-01-04T20:34:50.502Z,15.30
2019-01-04T20:38:26.665Z,14.90
2019-01-04T20:41:54.120Z,14.57
2019-01-04T20:44:59.286Z,15.17
2019-01-04T20:48:25.959Z,15.53
2019-01-04T20:51:44.109Z,16.77
2019-01-04T20:54:56.391Z,17.23
2019-01-04T20:58:11.803Z,16.63
2019-01-04T21:01:19.691Z,18.37
2019-01-04T21:04:33.239Z,19.57
2019-01-04T21:07:33.458Z,16.53
2019-01-04T21:10:42.280Z,18.97
2019-01-04T21:14:09.141Z,20.73
2019-01-04T21:17:23.244Z,20.20
2019-01-04T21:20:34.385Z,19.50
2019-01-04T21:23:47.788Z,21.50
2019-01-04T21:26:58.572Z,20.03
2019-01-04T21:30:05.143Z,21.43
2019-01-04T21:33:19.330Z,20.67
2019-01-04T21:36:35.671Z,22.70
2019-01-04T21:39:44.456Z,18.77
2019-01-04T21:43:02.934Z,19.13
2019-01-04T21:46:08.154Z,18.60
2019-01-04T21:49:13.465Z,19.97
2019-01-04T21:52:12.962Z,20.67
2019-01-04T21:55:20.577Z,19.40
2019-01-04T21:58:25.898Z,19.30
2019-01-04T22:01:31.062Z,19.83
2019-01-04T22:04:39.841Z,19.27
2019-01-04T22:07:50.614Z,19.90
2019-01-04T22:11:02.657Z,19.00
2019-01-04T22:14:10.559Z,19.07
2019-01-04T22:17:16.741Z,18.97
2019-01-04T22:20:36.621Z,25.33
2019-01-04T22:23:49.327Z,29.60
2019-01-04T22:26:54.806Z,18.97
2019-01-04T22:30:02.050Z,23.93
2019-01-04T22:33:32.322Z,28.03
2019-01-04T22:36:49.867Z,24.87
2019-01-04T22:40:15.479Z,39.10
2019-01-04T22:43:33.704Z,27.63
2019-01-04T22:46:42.034Z,34.97
2019-01-04T22:50:08.863Z,17.87
2019-01-04T22:53:17.793Z,21.23
2019-01-04T22:56:26.112Z,22.30
2019-01-04T22:59:34.327Z,17.53
2019-01-04T23:02:50.009Z,17.67
2019-01-04T23:06:01.004Z,22.17
2019-01-04T23:09:09.099Z,25.60
2019-01-04T23:12:22.305Z,19.57
2019-01-04T23:15:52.135Z,16.47
2019-01-04T23:19:00.688Z,18.23
2019-01-04T23:22:40.008Z,18.30
2019-01-04T23:29:35.668Z,18.53
2019-01-04T23:33:09.376Z,19.33
2019-01-04T23:36:23.515Z,19.60
2019-01-04T23:39:42.482Z,19.93
2019-01-04T23:42:52.522Z,21.03
2019-01-04T23:46:03.427Z,23.13
2019-01-04T23:49:05.392Z,23.07
2019-01-04T23:52:31.316Z,19.50
2019-01-04T23:55:37.856Z,20.87
2019-01-04T23:58:41.913Z,21.37
